Hovedside
METAR-TAF:

METAR-TAF

Lufthavner :

Kuusamo lufthavn

Kuusamo, Finland

breddegrad: 65-58N, lengdegrad: 029-11E, høyde over havet: 262 m

Gjeldene værobservasjon

Denne rapporten ble laget for 14 minutter siden, klokken 04:50 UTC
Vind 14 kt fra Sørvest med vindkast opp mot 24 kt
Temperatur 8°C
Luftfuktighet 87%
Trykk 995 hPa
Sikt 10 km eller mer
Spredte skyer i en høyde av 1300 ft

METAR: EFKS 210450Z AUTO 23014G24KT 9999 SCT013 08/06 Q0995

Tid: 08:04 (05:04 UTC)

Varsel

Denne rapporten ble laget for 20 timer og 29 minutter siden, klokken 08:35 UTC
Varsel gyldig fra 20. klokken 09 UTC til 20. klokken 13 UTC
Vind 10 kt fra Sør-sørøst
Sikt 10 km eller mer
Brutte skyer i en høyde av 400 ft
Midlertidig
fra 20. klokken 09 UTC til 20. klokken 13 UTC
Brutte skyer i en høyde av 800 ft

TAF: EFKS 200835Z 2009/2013 16010KT 9999 BKN004 TEMPO 2009/2013 BKN008

Værobservasjoner og værvarsel for over 4000 flyplasser (METAR- og TAF-rapporter).

Tilgjengelige stasjoner er representert av de røde og gule prikkene på kartet.

Hold musepekeren over prikken for å se navnet på stasjonen.

Klikk så for å se værobservasjoner og -varsler.

For å forandre kartet kan du klikke på den grønne knappen med svart kryss for å zoome inn, på den grønne knappen med strek for å zoome ut, eller på de grønne pilene for å se tilstøtende kart.


METAR-TAF: